createdAt,value
2023-08-21T00:02:29.369Z,24.36
2023-08-21T00:05:15.501Z,23.61
2023-08-21T00:08:01.470Z,25.04
2023-08-21T00:10:47.617Z,25.25
2023-08-21T00:13:33.500Z,25.37
2023-08-21T00:16:19.659Z,25.45
2023-08-21T00:19:05.928Z,25.64
2023-08-21T00:21:51.704Z,24.92
2023-08-21T00:24:37.779Z,24.80
2023-08-21T00:27:23.665Z,23.54
2023-08-21T00:30:10.448Z,24.39
2023-08-21T00:32:56.908Z,24.04
2023-08-21T00:35:43.933Z,24.74
2023-08-21T00:38:30.114Z,24.92
2023-08-21T00:41:16.414Z,24.63
2023-08-21T00:44:02.425Z,24.97
2023-08-21T00:46:48.787Z,25.29
2023-08-21T00:49:35.957Z,25.37
2023-08-21T00:52:22.054Z,25.46
2023-08-21T00:55:09.231Z,25.56
2023-08-21T00:57:56.065Z,24.48
2023-08-21T01:00:43.212Z,25.05
2023-08-21T01:03:29.303Z,25.39
2023-08-21T01:06:15.956Z,25.49
2023-08-21T01:09:09.202Z,25.49
2023-08-21T01:12:17.247Z,25.55
2023-08-21T01:15:11.008Z,25.62
2023-08-21T01:17:57.216Z,25.59
2023-08-21T01:20:43.919Z,25.74
2023-08-21T01:23:39.662Z,25.76
2023-08-21T01:26:25.633Z,25.24
2023-08-21T01:29:12.749Z,25.57
2023-08-21T01:32:15.823Z,25.36
2023-08-21T01:35:02.807Z,25.52
2023-08-21T01:37:49.443Z,25.58
2023-08-21T01:40:35.718Z,25.51
2023-08-21T01:43:21.873Z,25.76
2023-08-21T01:46:08.065Z,25.75
2023-08-21T01:48:54.041Z,25.75
2023-08-21T01:51:40.109Z,25.74
2023-08-21T01:54:26.218Z,25.87
2023-08-21T01:57:12.182Z,25.78
2023-08-21T01:59:58.110Z,25.84
2023-08-21T02:02:44.267Z,25.48
2023-08-21T02:05:30.537Z,25.08
2023-08-21T02:08:16.521Z,24.96
2023-08-21T02:11:02.995Z,24.26
2023-08-21T02:13:49.575Z,24.15
2023-08-21T02:16:35.779Z,24.46
2023-08-21T02:19:21.759Z,23.27
2023-08-21T02:22:07.738Z,22.96
2023-08-21T02:24:53.718Z,24.10
2023-08-21T02:27:39.821Z,24.21
2023-08-21T02:30:28.485Z,24.42
2023-08-21T02:33:14.800Z,23.97
2023-08-21T02:36:00.686Z,24.21
2023-08-21T02:38:51.206Z,24.53
2023-08-21T02:41:37.528Z,24.38
2023-08-21T02:44:23.612Z,24.78
2023-08-21T02:47:09.379Z,24.71
2023-08-21T02:49:56.040Z,23.70
2023-08-21T02:52:42.256Z,24.28
2023-08-21T02:55:28.449Z,24.05
2023-08-21T02:58:14.447Z,24.33
2023-08-21T03:01:00.338Z,23.63
2023-08-21T03:03:46.222Z,23.81
2023-08-21T03:06:32.271Z,23.80
2023-08-21T03:09:18.185Z,23.99
2023-08-21T03:12:04.842Z,23.85
2023-08-21T03:14:51.115Z,23.06
2023-08-21T03:17:37.189Z,23.80
2023-08-21T03:20:23.447Z,23.13
2023-08-21T03:23:09.468Z,23.83
2023-08-21T03:25:55.454Z,23.50
2023-08-21T03:28:41.450Z,22.41
2023-08-21T03:31:27.410Z,22.75
2023-08-21T03:34:14.006Z,22.73
2023-08-21T03:37:00.631Z,22.94
2023-08-21T03:39:49.998Z,22.90
2023-08-21T03:42:36.206Z,23.47
2023-08-21T03:45:22.545Z,22.81
2023-08-21T03:48:08.545Z,22.91
2023-08-21T03:50:54.841Z,22.31
2023-08-21T03:53:40.991Z,22.76
2023-08-21T03:56:26.973Z,22.39
2023-08-21T03:59:13.836Z,22.48
2023-08-21T04:02:00.445Z,23.08
2023-08-21T04:04:46.554Z,22.81
2023-08-21T04:07:32.694Z,22.98
2023-08-21T04:10:18.577Z,22.70
2023-08-21T04:13:04.512Z,22.61
2023-08-21T04:15:51.216Z,22.24
2023-08-21T04:18:42.171Z,22.59
2023-08-21T04:21:28.622Z,22.39
2023-08-21T04:24:14.774Z,22.52
2023-08-21T04:27:00.710Z,22.49
2023-08-21T04:29:46.641Z,22.81
2023-08-21T04:32:32.810Z,22.30
2023-08-21T04:35:18.866Z,23.11
2023-08-21T04:38:04.750Z,23.02
2023-08-21T04:40:50.909Z,22.74
2023-08-21T04:43:36.824Z,21.62
2023-08-21T04:46:24.289Z,21.96
2023-08-21T04:49:10.456Z,22.99
2023-08-21T04:51:56.288Z,22.31
2023-08-21T04:54:43.234Z,22.96
2023-08-21T04:57:30.289Z,22.82
2023-08-21T05:00:18.169Z,23.21
2023-08-21T05:03:05.225Z,23.43
2023-08-21T05:05:55.528Z,23.25
2023-08-21T05:08:42.489Z,23.23
2023-08-21T05:11:30.061Z,22.86
2023-08-21T05:14:17.302Z,23.44
2023-08-21T05:17:03.545Z,23.58
2023-08-21T05:19:49.570Z,23.81
2023-08-21T05:22:37.374Z,23.96
2023-08-21T05:25:23.955Z,24.12
2023-08-21T05:28:10.158Z,24.16
2023-08-21T05:30:56.428Z,24.40
2023-08-21T05:33:42.470Z,24.51
2023-08-21T05:36:28.677Z,24.36
2023-08-21T05:39:15.694Z,24.73
2023-08-21T05:42:01.905Z,24.83
2023-08-21T05:44:48.187Z,24.89
2023-08-21T05:47:34.548Z,25.06
2023-08-21T05:50:20.592Z,24.92
2023-08-21T05:53:07.440Z,25.07
2023-08-21T05:55:55.063Z,25.11
2023-08-21T05:58:41.686Z,25.17
2023-08-21T06:01:27.608Z,25.17
2023-08-21T06:04:14.088Z,25.25
2023-08-21T06:07:03.579Z,25.29
2023-08-21T06:09:49.468Z,25.37
2023-08-21T06:12:35.855Z,25.35
2023-08-21T06:15:22.062Z,25.32
2023-08-21T06:18:08.197Z,25.02
2023-08-21T06:20:56.407Z,25.12
2023-08-21T06:23:42.692Z,25.06
2023-08-21T06:26:28.592Z,24.44
2023-08-21T06:29:14.889Z,25.29
2023-08-21T06:32:00.987Z,25.22
2023-08-21T06:34:46.951Z,25.35
2023-08-21T06:37:33.010Z,25.41
2023-08-21T06:40:19.167Z,25.54
2023-08-21T06:43:07.312Z,25.16
2023-08-21T06:45:54.241Z,25.24
2023-08-21T06:48:44.309Z,25.63
2023-08-21T06:51:30.162Z,25.79
2023-08-21T06:54:16.343Z,25.75
2023-08-21T06:57:02.083Z,25.74
2023-08-21T06:59:47.958Z,25.92
2023-08-21T07:02:34.068Z,25.39
2023-08-21T07:05:20.215Z,25.96
2023-08-21T07:08:06.798Z,26.05
2023-08-21T07:10:53.711Z,26.16
2023-08-21T07:13:40.160Z,26.21
2023-08-21T07:16:27.591Z,25.99
2023-08-21T07:19:13.500Z,26.16
2023-08-21T07:21:59.456Z,26.37
2023-08-21T07:24:45.527Z,26.49
2023-08-21T07:27:32.994Z,26.25
2023-08-21T07:30:19.067Z,26.49
2023-08-21T07:33:06.446Z,26.48
2023-08-21T07:36:06.417Z,26.40
2023-08-21T07:38:52.737Z,26.59
2023-08-21T07:41:38.874Z,26.80
2023-08-21T07:44:25.025Z,26.56
2023-08-21T07:47:11.315Z,26.77
2023-08-21T07:49:58.616Z,26.66
2023-08-21T07:52:44.745Z,26.96
2023-08-21T07:55:30.674Z,27.11
2023-08-21T07:58:16.646Z,27.14
2023-08-21T08:01:02.819Z,27.28
2023-08-21T08:03:50.650Z,27.28
2023-08-21T08:06:37.146Z,27.54
2023-08-21T08:09:23.253Z,27.71
2023-08-21T08:12:10.127Z,27.73
2023-08-21T08:14:56.218Z,27.80
2023-08-21T08:17:42.255Z,27.89
2023-08-21T08:20:28.173Z,27.99
2023-08-21T08:23:14.276Z,27.97
2023-08-21T08:26:00.436Z,28.15
2023-08-21T08:28:47.960Z,28.19
2023-08-21T08:31:34.101Z,28.18
2023-08-21T08:34:21.666Z,28.23
2023-08-21T08:37:07.575Z,28.21
2023-08-21T08:39:53.707Z,28.47
2023-08-21T08:42:40.426Z,28.52
2023-08-21T08:45:33.669Z,28.61
2023-08-21T08:48:21.928Z,28.70
2023-08-21T08:51:08.240Z,28.71
2023-08-21T08:53:54.307Z,28.78
2023-08-21T08:56:40.400Z,28.90
2023-08-21T08:59:26.865Z,28.91
2023-08-21T09:02:13.123Z,28.96
2023-08-21T09:04:59.786Z,28.99
2023-08-21T09:07:45.959Z,29.07
2023-08-21T09:10:32.310Z,29.08
2023-08-21T09:13:20.006Z,29.28
2023-08-21T09:16:06.553Z,29.29
2023-08-21T09:18:55.193Z,29.15
2023-08-21T09:21:41.644Z,28.98
2023-08-21T09:24:27.724Z,29.10
2023-08-21T09:27:18.485Z,29.08
2023-08-21T09:30:10.590Z,29.22
2023-08-21T09:32:59.081Z,29.55
2023-08-21T09:35:45.019Z,29.42
2023-08-21T09:38:31.545Z,29.54
2023-08-21T09:41:20.783Z,29.64
2023-08-21T09:44:07.034Z,29.90
2023-08-21T09:46:53.336Z,29.97
2023-08-21T09:49:40.588Z,30.20
2023-08-21T09:52:27.478Z,30.16
2023-08-21T09:55:14.975Z,30.27
2023-08-21T09:58:02.057Z,30.33
2023-08-21T10:00:50.572Z,30.26
2023-08-21T10:03:37.363Z,30.41
2023-08-21T10:06:25.073Z,30.18
2023-08-21T10:09:11.258Z,30.43
2023-08-21T10:11:57.714Z,30.57
2023-08-21T10:14:43.882Z,30.27
2023-08-21T10:17:29.950Z,30.29
2023-08-21T10:20:23.600Z,30.48
2023-08-21T10:23:09.434Z,30.51
2023-08-21T10:26:00.549Z,30.61
2023-08-21T10:28:51.949Z,30.51
2023-08-21T10:31:44.425Z,30.65
2023-08-21T10:34:35.958Z,30.63
2023-08-21T10:37:23.254Z,30.67
2023-08-21T10:40:13.591Z,30.70
2023-08-21T10:43:00.507Z,30.76
2023-08-21T10:45:58.575Z,30.64
2023-08-21T10:48:45.104Z,30.78
2023-08-21T10:51:31.415Z,30.77
2023-08-21T10:54:17.555Z,30.55
2023-08-21T10:57:04.133Z,30.79
2023-08-21T10:59:55.772Z,30.90
2023-08-21T11:02:47.292Z,30.64
2023-08-21T11:05:33.337Z,31.05
2023-08-21T11:08:20.064Z,31.21
2023-08-21T11:11:07.791Z,31.19
2023-08-21T11:13:55.784Z,31.23
2023-08-21T11:16:42.970Z,31.32
2023-08-21T11:19:31.998Z,31.53
2023-08-21T11:22:18.062Z,31.57
2023-08-21T11:25:05.109Z,31.69
2023-08-21T11:27:51.127Z,31.75
2023-08-21T11:30:37.135Z,31.84
2023-08-21T11:33:23.693Z,31.82
2023-08-21T11:36:10.054Z,31.80
2023-08-21T11:39:01.213Z,31.78
2023-08-21T11:42:00.108Z,31.83
2023-08-21T11:44:50.970Z,31.78
2023-08-21T11:47:37.625Z,31.84
2023-08-21T11:50:24.173Z,31.89
2023-08-21T11:53:12.007Z,31.92
2023-08-21T11:55:58.334Z,31.93
2023-08-21T11:58:50.351Z,31.94
2023-08-21T12:01:36.474Z,31.96
2023-08-21T12:04:22.865Z,31.97
2023-08-21T12:07:08.984Z,32.08
2023-08-21T12:09:54.983Z,31.96
2023-08-21T12:12:41.044Z,32.21
2023-08-21T12:15:26.966Z,32.26
2023-08-21T12:18:13.497Z,32.29
2023-08-21T12:21:00.011Z,32.30
2023-08-21T12:23:46.397Z,32.24
2023-08-21T12:26:44.692Z,32.37
2023-08-21T12:29:35.861Z,32.48
2023-08-21T12:32:25.231Z,32.55
2023-08-21T12:35:13.346Z,32.51
2023-08-21T12:38:00.050Z,32.64
2023-08-21T12:40:46.254Z,32.60
2023-08-21T12:43:32.682Z,32.63
2023-08-21T12:46:18.823Z,32.70
2023-08-21T12:49:05.509Z,32.79
2023-08-21T12:51:51.653Z,32.75
2023-08-21T12:54:37.746Z,32.77
2023-08-21T12:57:24.019Z,32.80
2023-08-21T13:00:12.899Z,32.94
2023-08-21T13:02:59.550Z,32.95
2023-08-21T13:05:45.760Z,32.96
2023-08-21T13:08:32.379Z,32.97
2023-08-21T13:11:18.625Z,33.00
2023-08-21T13:14:04.833Z,33.09
2023-08-21T13:16:51.092Z,33.10
2023-08-21T13:19:37.154Z,33.09
2023-08-21T13:22:23.312Z,33.10
2023-08-21T13:25:09.721Z,33.18
2023-08-21T13:27:56.339Z,33.25
2023-08-21T13:30:54.085Z,33.24
2023-08-21T13:33:51.899Z,33.30
2023-08-21T13:36:39.363Z,33.29
2023-08-21T13:39:27.476Z,33.29
2023-08-21T13:42:13.598Z,33.34
2023-08-21T13:44:59.577Z,33.32
2023-08-21T13:47:48.514Z,33.35
2023-08-21T13:50:34.873Z,33.42
2023-08-21T13:53:22.127Z,33.37
2023-08-21T13:56:08.079Z,33.53
2023-08-21T13:58:54.395Z,33.59
2023-08-21T14:01:40.482Z,33.57
2023-08-21T14:04:27.377Z,33.78
2023-08-21T14:07:14.057Z,33.91
2023-08-21T14:10:00.401Z,34.09
2023-08-21T14:12:46.628Z,34.35
2023-08-21T14:15:32.858Z,34.46
2023-08-21T14:18:18.980Z,34.72
2023-08-21T14:21:05.134Z,34.72
2023-08-21T14:23:51.287Z,34.91
2023-08-21T14:26:37.277Z,34.93
2023-08-21T14:29:23.480Z,35.02
2023-08-21T14:32:10.921Z,35.08
2023-08-21T14:34:57.077Z,35.21
2023-08-21T14:37:43.592Z,35.20
2023-08-21T14:40:29.778Z,35.32
2023-08-21T14:43:16.113Z,35.37
2023-08-21T14:46:02.224Z,35.49
2023-08-21T14:48:48.650Z,35.38
2023-08-21T14:51:34.900Z,35.31
2023-08-21T14:54:21.550Z,35.28
2023-08-21T14:57:07.681Z,35.20
2023-08-21T14:59:53.582Z,35.18
2023-08-21T15:02:39.753Z,35.12
2023-08-21T15:05:26.046Z,34.98
2023-08-21T15:08:12.337Z,34.90
2023-08-21T15:10:58.567Z,35.00
2023-08-21T15:13:44.836Z,35.02
2023-08-21T15:16:31.513Z,35.05
2023-08-21T15:19:17.693Z,35.10
2023-08-21T15:22:03.887Z,35.25
2023-08-21T15:24:50.069Z,35.24
2023-08-21T15:27:36.912Z,35.18
2023-08-21T15:30:23.528Z,35.26
2023-08-21T15:33:09.659Z,35.37
2023-08-21T15:35:55.568Z,35.37
2023-08-21T15:38:41.674Z,35.49
2023-08-21T15:41:27.671Z,35.58
2023-08-21T15:44:13.520Z,35.61
2023-08-21T15:47:24.177Z,35.62
2023-08-21T15:50:06.483Z,35.58
2023-08-21T15:52:52.681Z,35.64
2023-08-21T15:55:38.690Z,35.60
2023-08-21T15:58:24.847Z,35.57
2023-08-21T16:01:11.045Z,35.45
2023-08-21T16:03:57.005Z,35.44
2023-08-21T16:06:42.970Z,35.25
2023-08-21T16:09:29.038Z,35.19
2023-08-21T16:12:14.996Z,35.16
2023-08-21T16:15:01.445Z,35.10
2023-08-21T16:17:48.290Z,35.02
2023-08-21T16:20:34.784Z,34.89
2023-08-21T16:23:20.936Z,34.77
2023-08-21T16:26:06.967Z,34.72
2023-08-21T16:28:53.126Z,34.70
2023-08-21T16:31:39.135Z,34.50
2023-08-21T16:34:25.345Z,34.45
2023-08-21T16:37:11.244Z,34.34
2023-08-21T16:39:57.065Z,34.23
2023-08-21T16:42:43.332Z,34.19
2023-08-21T16:45:29.508Z,34.06
2023-08-21T16:48:15.407Z,33.88
2023-08-21T16:51:01.384Z,33.85
2023-08-21T16:53:47.304Z,33.76
2023-08-21T16:56:33.423Z,33.62
2023-08-21T16:59:19.847Z,33.59
2023-08-21T17:02:05.939Z,33.47
2023-08-21T17:04:52.747Z,33.38
2023-08-21T17:07:39.389Z,33.32
2023-08-21T17:10:25.744Z,33.27
2023-08-21T17:13:12.179Z,33.19
2023-08-21T17:16:00.292Z,33.11
2023-08-21T17:18:46.676Z,33.02
2023-08-21T17:21:32.993Z,32.86
2023-08-21T17:24:20.423Z,32.71
2023-08-21T17:27:06.332Z,32.83
2023-08-21T17:29:53.147Z,32.60
2023-08-21T17:32:39.527Z,32.62
2023-08-21T17:35:26.270Z,32.59
2023-08-21T17:38:12.159Z,32.42
2023-08-21T17:40:57.978Z,32.46
2023-08-21T17:43:44.650Z,32.36
2023-08-21T17:46:30.881Z,32.30
2023-08-21T17:49:17.065Z,32.20
2023-08-21T17:52:03.647Z,32.19
2023-08-21T17:54:49.897Z,32.02
2023-08-21T17:57:37.878Z,32.05
2023-08-21T18:00:24.655Z,32.03
2023-08-21T18:03:10.800Z,31.92
2023-08-21T18:05:56.732Z,31.86
2023-08-21T18:08:43.313Z,31.78
2023-08-21T18:11:29.319Z,31.76
2023-08-21T18:14:15.396Z,31.59
2023-08-21T18:17:04.618Z,31.59
2023-08-21T18:19:51.613Z,31.58
2023-08-21T18:22:37.738Z,31.54
2023-08-21T18:25:23.950Z,31.47
2023-08-21T18:28:10.541Z,31.40
2023-08-21T18:30:58.092Z,31.26
2023-08-21T18:33:44.395Z,31.24
2023-08-21T18:36:34.642Z,31.23
2023-08-21T18:39:20.777Z,31.16
2023-08-21T18:42:06.781Z,31.12
2023-08-21T18:44:53.279Z,31.07
2023-08-21T18:47:40.190Z,30.98
2023-08-21T18:50:43.362Z,30.98
2023-08-21T18:53:31.981Z,30.87
2023-08-21T18:56:18.187Z,30.84
2023-08-21T18:59:04.162Z,30.85
2023-08-21T19:01:50.281Z,30.69
2023-08-21T19:04:36.262Z,30.69
2023-08-21T19:07:22.577Z,30.68
2023-08-21T19:10:10.727Z,30.59
2023-08-21T19:12:57.309Z,30.52
2023-08-21T19:15:43.275Z,30.53
2023-08-21T19:18:29.526Z,30.41
2023-08-21T19:21:15.765Z,30.46
2023-08-21T19:24:01.892Z,30.37
2023-08-21T19:26:47.922Z,30.27
2023-08-21T19:29:34.042Z,30.27
2023-08-21T19:32:20.174Z,30.27
2023-08-21T19:35:06.674Z,30.24
2023-08-21T19:37:53.569Z,30.11
2023-08-21T19:40:40.042Z,30.07
2023-08-21T19:43:26.429Z,30.14
2023-08-21T19:46:13.244Z,30.09
2023-08-21T19:48:59.516Z,30.07
2023-08-21T19:51:46.059Z,29.95
2023-08-21T19:54:32.570Z,29.95
2023-08-21T19:57:18.868Z,29.91
2023-08-21T20:00:06.552Z,29.91
2023-08-21T20:02:52.783Z,29.85
2023-08-21T20:05:39.636Z,29.77
2023-08-21T20:08:25.622Z,29.73
2023-08-21T20:11:11.822Z,29.57
2023-08-21T20:13:57.921Z,29.58
2023-08-21T20:16:43.998Z,29.45
2023-08-21T20:19:30.212Z,29.49
2023-08-21T20:22:16.388Z,29.41
2023-08-21T20:25:03.763Z,29.36
2023-08-21T20:27:50.293Z,29.26
2023-08-21T20:30:36.559Z,29.27
2023-08-21T20:33:22.657Z,29.10
2023-08-21T20:36:08.418Z,29.11
2023-08-21T20:38:54.625Z,29.09
2023-08-21T20:41:40.590Z,29.01
2023-08-21T20:44:26.437Z,28.88
2023-08-21T20:47:13.062Z,28.91
2023-08-21T20:50:00.455Z,28.78
2023-08-21T20:52:48.460Z,28.82
2023-08-21T20:55:34.790Z,28.72
2023-08-21T20:58:21.614Z,28.65
2023-08-21T21:01:08.033Z,28.62
2023-08-21T21:03:54.132Z,28.63
2023-08-21T21:06:40.356Z,28.60
2023-08-21T21:09:26.610Z,28.53
2023-08-21T21:12:12.952Z,28.54
2023-08-21T21:14:59.362Z,28.46
2023-08-21T21:17:46.581Z,28.41
2023-08-21T21:20:32.558Z,28.42
2023-08-21T21:23:18.525Z,28.39
2023-08-21T21:26:04.759Z,28.32
2023-08-21T21:28:50.786Z,28.13
2023-08-21T21:31:37.208Z,28.28
2023-08-21T21:34:23.404Z,28.18
2023-08-21T21:37:10.079Z,28.07
2023-08-21T21:39:56.518Z,28.06
2023-08-21T21:42:42.769Z,28.02
2023-08-21T21:45:28.908Z,28.00
2023-08-21T21:48:15.205Z,27.99
2023-08-21T21:51:01.415Z,27.97
2023-08-21T21:53:47.631Z,27.92
2023-08-21T21:56:33.476Z,27.81
2023-08-21T21:59:19.592Z,27.82
2023-08-21T22:02:05.677Z,27.74
2023-08-21T22:04:51.665Z,27.67
2023-08-21T22:07:37.938Z,27.59
2023-08-21T22:10:24.128Z,27.62
2023-08-21T22:13:10.268Z,27.54
2023-08-21T22:15:56.585Z,27.49
2023-08-21T22:18:42.360Z,27.44
2023-08-21T22:21:28.436Z,27.35
2023-08-21T22:24:14.591Z,27.28
2023-08-21T22:27:00.676Z,27.34
2023-08-21T22:29:46.707Z,27.30
2023-08-21T22:32:32.716Z,27.26
2023-08-21T22:35:19.093Z,27.14
2023-08-21T22:38:05.083Z,27.12
2023-08-21T22:40:51.146Z,26.93
2023-08-21T22:43:37.237Z,27.04
2023-08-21T22:46:23.367Z,27.00
2023-08-21T22:49:09.246Z,27.01
2023-08-21T22:51:55.196Z,26.99
2023-08-21T22:54:41.706Z,26.95
2023-08-21T22:57:27.721Z,26.88
2023-08-21T23:00:15.119Z,26.81
2023-08-21T23:03:01.173Z,26.84
2023-08-21T23:05:57.346Z,26.83
2023-08-21T23:08:43.494Z,26.80
2023-08-21T23:11:29.887Z,26.77
2023-08-21T23:14:15.946Z,26.75
2023-08-21T23:17:05.899Z,26.75
2023-08-21T23:19:52.215Z,26.75
2023-08-21T23:22:38.460Z,26.62
2023-08-21T23:25:24.743Z,26.69
2023-08-21T23:28:10.917Z,26.49
2023-08-21T23:30:57.372Z,26.61
2023-08-21T23:33:43.342Z,26.51
2023-08-21T23:36:29.464Z,26.64
2023-08-21T23:39:15.627Z,26.63
2023-08-21T23:42:01.847Z,26.59
2023-08-21T23:44:48.008Z,26.57
2023-08-21T23:47:34.064Z,26.44
2023-08-21T23:50:20.374Z,26.51
2023-08-21T23:53:07.773Z,26.45
2023-08-21T23:55:54.971Z,26.47
2023-08-21T23:58:42.165Z,26.41
